Agoura, CA

11:26 PM PDT on October 24, 2014 (GMT -0700)
Paramount Ranch | Change Station
CLOSE
Current Station
Personal Weather Station
Location: Agoura Hills, CA
Elevation: 820 ft
Nearby Weather Stations

Elev 820 ft 34.12 °N, 118.75 °W | Updated 7 minutes ago

Partly Cloudy
Partly Cloudy
50.5 °F
Feels Like 50.5 °F
N
0.0
Wind Variable Wind from ESE

Today
High -- | Low -- °F
--% Chance of Precip.
Yesterday
High -- | Low -- °F
Precip. -- in
7:07 AM 6:10 PM
New Moon, 2% visible
Pressure 29.99 in
Visibility 10.0 miles
Clouds Clear
Dew Point 41 °F
Humidity 70%
Rainfall 0.00 in
Snow Depth Not available.
UV 0 out of 12
Pollen 4.10 out of 12
Ozone Good
PM2.5 Moderate
Flu Activity Sporadic
METAR KVNY 250551Z 36003KT 10SM CLR 19/05 A3001 RMK AO2 SLP153 T01890050 10294 20189 53014

More Conditions Fewer Conditions

Pressure 29.99 in
Visibility 10.0 miles
Clouds Clear
Dew Point 41 °F
Humidity 70%
Rainfall 0.00 in
Snow Depth Not available.
UV 0 out of 12
Pollen 4.10 out of 12
Ozone Good
PM2.5 Moderate
Flu Activity Sporadic
METAR KVNY 250551Z 36003KT 10SM CLR 19/05 A3001 RMK AO2 SLP153 T01890050 10294 20189 53014

More Conditions Fewer Conditions

10-Day Weather Forecast

Almanac

Astronomy

Oct. 24, 2014 Rise Set
Actual Time 7:07 AM PDT 6:10 PM PDT
Civil Twilight 6:42 AM PDT 6:35 PM PDT
Nautical Twilight 6:12 AM PDT 7:04 PM PDT
Astronomical Twilight 5:43 AM PDT 7:34 PM PDT
Moon 7:50 AM PDT (10/24) 6:55 PM PDT (10/24)
Length of Visible Light 11h 53m
Length of Day
11h 02m
Tomorrow will be 1m 56s shorter.
New Moon, 2% of the Moon is Illuminated
Oct 25
New Moon
Oct 30
First Quarter
Nov 6
Full
Nov 14
Last Quarter
Nov 22
New

Community

WunderPhotos

Upload Photos

1,764,785 photos uploaded!

Nearby

Air Quality

  Air Quality AQ Index Pollutant
Yesterday Moderate
OZONE
Yesterday Moderate
PM2.5
Current Moderate
PM2.5
Current Good
OZONE
Saturday Good
PM10
Saturday Good
OZONE
Saturday Good
CO
Saturday Good
NO2

Snow Depth

Station Depth Elevation
Virginia Lakes Ridge 0 in 9200 ft
Leavitt Lake 1 in 9400 ft
Leavitt Meadows 1 in 7200 ft
Summit Meadow 1 in 9122 ft
Blue Lakes 0 in 8000 ft

Earthquake Activity

City Distance Mag. Time & Date
Coalinga, California 160 miles 2.5 11:01 PM PDT
2014-10-24
Brea, California 51 miles 2.9 3:35 PM PDT
2014-10-23
Brea, California 52 miles 2.8 3:34 PM PDT
2014-10-23
Corona, California 65 miles 2.5 1:09 PM PDT
2014-10-23
Minimum magnitude displayed is 2.5.

Coastal Water Temperatures

Place Temperature
Santa Monica Pier 69.1 °F
Los Angeles, CA 69.1 °F
La Jolla, CA 71.1 °F

Nearby Weather Stations